createdAt,value
2019-01-27T00:07:08.591Z,72.57
2019-01-27T00:10:17.831Z,72.51
2019-01-27T00:15:44.703Z,72.28
2019-01-27T00:18:53.586Z,71.85
2019-01-27T00:22:02.933Z,72.06
2019-01-27T00:34:38.136Z,70.78
2019-01-27T00:40:27.840Z,71.08
2019-01-27T00:45:59.742Z,71.16
2019-01-27T00:49:09.208Z,70.80
2019-01-27T00:52:18.610Z,71.19
2019-01-27T00:58:03.936Z,71.45
2019-01-27T01:04:00.750Z,70.55
2019-01-27T01:09:34.024Z,70.46
2019-01-27T01:12:03.465Z,70.82
2019-01-27T01:15:12.614Z,70.71
2019-01-27T01:29:55.362Z,70.36
2019-01-27T01:32:25.075Z,70.58
2019-01-27T01:34:54.962Z,70.71
2019-01-27T01:38:03.970Z,70.57
2019-01-27T01:49:51.571Z,70.99
2019-01-27T01:52:21.102Z,70.99
2019-01-27T01:54:50.797Z,71.76
2019-01-27T01:57:21.535Z,71.12
2019-01-27T02:03:00.698Z,70.77
2019-01-27T02:08:39.785Z,71.00
2019-01-27T02:17:27.260Z,71.32
2019-01-27T02:20:36.026Z,70.99
2019-01-27T02:23:45.769Z,71.25
2019-01-27T02:26:17.649Z,71.35
2019-01-27T02:29:27.515Z,71.44
2019-01-27T02:35:00.509Z,70.52
2019-01-27T02:38:10.067Z,70.73
2019-01-27T02:40:58.471Z,70.90
2019-01-27T02:50:17.486Z,71.47
2019-01-27T02:52:46.927Z,71.00
2019-01-27T02:55:55.809Z,71.37
2019-01-27T02:58:25.825Z,71.58
2019-01-27T03:00:55.633Z,70.86
2019-01-27T03:04:05.318Z,71.22
2019-01-27T03:09:49.452Z,71.20
2019-01-27T03:18:42.092Z,70.79
2019-01-27T03:24:13.727Z,70.90
2019-01-27T03:26:43.167Z,70.74
2019-01-27T03:32:28.107Z,70.87
2019-01-27T03:38:23.074Z,70.78
2019-01-27T03:47:10.105Z,71.46
2019-01-27T03:50:19.282Z,71.28
2019-01-27T03:53:28.217Z,71.47
2019-01-27T03:59:24.482Z,72.07
2019-01-27T04:05:08.426Z,72.42
2019-01-27T04:07:38.085Z,73.05
2019-01-27T04:10:48.886Z,73.34
2019-01-27T04:19:26.105Z,72.62
2019-01-27T04:22:14.951Z,72.68
2019-01-27T04:24:44.525Z,71.65
2019-01-27T04:27:54.305Z,71.65
2019-01-27T04:33:20.878Z,71.83
2019-01-27T04:36:29.793Z,70.82
2019-01-27T04:39:20.796Z,71.84
2019-01-27T04:59:58.812Z,71.51
2019-01-27T05:03:07.661Z,70.92
2019-01-27T05:08:33.732Z,70.76
2019-01-27T05:11:42.626Z,71.53
2019-01-27T05:17:40.245Z,70.91
2019-01-27T05:20:49.275Z,71.33
2019-01-27T05:26:20.745Z,71.02
2019-01-27T05:28:50.124Z,70.86
2019-01-27T05:31:59.045Z,71.18
2019-01-27T05:37:51.984Z,71.91
2019-01-27T05:43:23.350Z,70.53
2019-01-27T05:46:32.131Z,71.21
2019-01-27T05:49:41.547Z,71.05
2019-01-27T05:58:20.232Z,70.86
2019-01-27T06:04:04.272Z,70.54
2019-01-27T06:09:49.269Z,71.31
2019-01-27T06:12:21.648Z,71.15
2019-01-27T06:15:31.838Z,71.59
2019-01-27T06:18:03.775Z,71.26
2019-01-27T06:20:35.314Z,71.24
2019-01-27T06:23:05.544Z,71.66
2019-01-27T06:25:37.790Z,71.39
2019-01-27T06:28:09.041Z,71.46
2019-01-27T06:30:39.558Z,71.59
2019-01-27T06:33:25.971Z,71.96
2019-01-27T06:35:56.351Z,71.78
2019-01-27T06:38:26.077Z,71.46
2019-01-27T06:40:55.704Z,71.43
2019-01-27T06:43:25.885Z,70.90
2019-01-27T06:45:57.420Z,71.12
2019-01-27T06:48:28.093Z,71.25
2019-01-27T06:50:58.430Z,71.46
2019-01-27T06:53:28.426Z,71.89
2019-01-27T06:55:58.457Z,72.18
2019-01-27T06:58:46.912Z,72.08
2019-01-27T07:01:44.375Z,72.06
2019-01-27T07:04:35.948Z,72.49
2019-01-27T07:07:33.052Z,72.51
2019-01-27T07:10:33.480Z,72.19
2019-01-27T07:13:43.653Z,71.94
2019-01-27T07:19:47.558Z,72.08
2019-01-27T07:25:31.016Z,71.95
2019-01-27T07:35:10.919Z,70.65
2019-01-27T07:37:45.288Z,70.93
2019-01-27T07:40:35.128Z,70.88
2019-01-27T07:43:33.459Z,70.80
2019-01-27T07:46:22.660Z,70.89
2019-01-27T07:49:09.313Z,70.37
2019-01-27T07:51:51.517Z,70.35
2019-01-27T07:54:52.125Z,70.43
2019-01-27T07:57:34.273Z,70.50
2019-01-27T08:00:09.965Z,70.50
2019-01-27T08:02:57.430Z,70.03
2019-01-27T08:05:44.607Z,69.14
2019-01-27T08:08:51.748Z,69.07
2019-01-27T08:11:38.290Z,69.32
2019-01-27T08:14:47.389Z,68.92
2019-01-27T08:17:36.610Z,69.39
2019-01-27T08:20:46.856Z,69.48
2019-01-27T08:23:26.192Z,69.99
2019-01-27T08:26:14.739Z,69.70
2019-01-27T08:32:00.309Z,69.97
2019-01-27T08:34:47.737Z,69.83
2019-01-27T08:37:36.225Z,69.63
2019-01-27T08:40:21.016Z,69.16
2019-01-27T08:43:09.358Z,68.89
2019-01-27T08:45:47.415Z,68.56
2019-01-27T08:48:17.437Z,68.54
2019-01-27T08:54:01.857Z,68.64
2019-01-27T08:57:10.575Z,68.62
2019-01-27T09:02:55.585Z,68.24
2019-01-27T09:12:00.210Z,67.93
2019-01-27T09:14:41.786Z,67.35
2019-01-27T09:17:36.265Z,67.72
2019-01-27T09:20:44.353Z,67.00
2019-01-27T09:23:24.928Z,66.99
2019-01-27T09:26:13.831Z,66.64
2019-01-27T09:29:23.617Z,66.61
2019-01-27T09:32:21.090Z,66.22
2019-01-27T09:35:18.404Z,66.71
2019-01-27T09:38:10.313Z,66.41
2019-01-27T09:40:59.180Z,65.42
2019-01-27T09:43:56.657Z,65.10
2019-01-27T09:46:50.028Z,65.18
2019-01-27T09:49:45.132Z,65.90
2019-01-27T09:52:24.492Z,66.11
2019-01-27T09:55:11.823Z,66.28
2019-01-27T09:57:59.857Z,65.99
2019-01-27T10:00:48.458Z,66.17
2019-01-27T10:03:31.332Z,65.81
2019-01-27T10:06:22.650Z,65.87
2019-01-27T10:09:17.264Z,66.02
2019-01-27T10:12:08.693Z,66.39
2019-01-27T10:14:56.026Z,65.98
2019-01-27T10:20:40.504Z,66.53
2019-01-27T10:23:49.683Z,66.00
2019-01-27T10:26:27.728Z,65.89
2019-01-27T10:29:14.763Z,66.05
2019-01-27T10:32:05.948Z,66.08
2019-01-27T10:34:54.289Z,66.22
2019-01-27T10:38:00.722Z,65.96
2019-01-27T10:40:41.414Z,66.20
2019-01-27T10:43:21.879Z,66.18
2019-01-27T10:46:19.698Z,66.50
2019-01-27T10:49:11.541Z,66.83
2019-01-27T10:52:09.270Z,66.88
2019-01-27T10:55:06.983Z,66.61
2019-01-27T10:57:48.310Z,66.42
2019-01-27T11:00:36.681Z,65.85
2019-01-27T11:03:34.312Z,65.65
2019-01-27T11:06:43.697Z,66.22
2019-01-27T11:12:52.028Z,66.90
2019-01-27T11:15:40.428Z,66.40
2019-01-27T11:21:25.291Z,66.65
2019-01-27T11:24:26.848Z,66.79
2019-01-27T11:27:08.105Z,66.26
2019-01-27T11:30:03.317Z,65.94
2019-01-27T11:32:50.587Z,66.38
2019-01-27T11:35:44.798Z,65.41
2019-01-27T11:38:45.411Z,65.69
2019-01-27T11:41:32.833Z,66.09
2019-01-27T11:44:19.464Z,65.76
2019-01-27T11:47:06.338Z,66.02
2019-01-27T11:50:07.262Z,64.98
2019-01-27T11:52:43.686Z,64.78
2019-01-27T11:55:15.392Z,64.61
2019-01-27T11:57:44.837Z,65.04
2019-01-27T12:00:17.967Z,64.68
2019-01-27T12:02:49.940Z,63.55
2019-01-27T12:05:21.393Z,63.06
2019-01-27T12:20:44.960Z,62.76
2019-01-27T12:26:24.259Z,62.89
2019-01-27T12:28:54.147Z,63.13
2019-01-27T12:31:23.761Z,63.44
2019-01-27T12:33:53.839Z,63.55
2019-01-27T12:36:23.887Z,64.15
2019-01-27T12:38:53.744Z,64.70
2019-01-27T12:41:24.469Z,64.13
2019-01-27T12:43:54.633Z,63.98
2019-01-27T12:46:24.214Z,64.75
2019-01-27T12:48:57.558Z,64.73
2019-01-27T12:51:28.071Z,64.90
2019-01-27T12:53:58.244Z,64.83
2019-01-27T12:56:27.990Z,64.44
2019-01-27T12:58:58.910Z,64.66
2019-01-27T13:01:33.283Z,65.07
2019-01-27T13:04:03.574Z,64.78
2019-01-27T13:06:32.964Z,64.85
2019-01-27T13:09:02.933Z,65.71
2019-01-27T13:11:33.919Z,66.05
2019-01-27T13:14:05.641Z,65.43
2019-01-27T13:16:43.354Z,66.02
2019-01-27T13:19:13.525Z,65.31
2019-01-27T13:21:44.288Z,65.33
2019-01-27T13:24:19.569Z,64.91
2019-01-27T13:26:49.373Z,64.69
2019-01-27T13:29:20.907Z,64.86
2019-01-27T13:31:51.495Z,65.03
2019-01-27T13:34:22.028Z,65.75
2019-01-27T13:37:30.764Z,65.60
2019-01-27T13:43:31.310Z,66.86
2019-01-27T13:46:01.704Z,66.71
2019-01-27T13:49:10.958Z,67.42
2019-01-27T13:55:13.162Z,67.90
2019-01-27T13:57:44.521Z,68.14
2019-01-27T14:00:19.367Z,68.42
2019-01-27T14:02:49.314Z,68.47
2019-01-27T14:05:18.924Z,68.55
2019-01-27T14:07:50.596Z,69.12
2019-01-27T14:16:20.337Z,69.14
2019-01-27T14:19:29.897Z,69.49
2019-01-27T14:25:14.192Z,69.40
2019-01-27T14:27:44.700Z,69.42
2019-01-27T14:30:18.234Z,69.84
2019-01-27T14:32:47.787Z,69.80
2019-01-27T14:35:18.417Z,69.99
2019-01-27T14:38:27.385Z,69.79
2019-01-27T14:44:31.480Z,70.07
2019-01-27T14:47:01.684Z,70.46
2019-01-27T14:49:31.829Z,70.04
2019-01-27T14:52:01.766Z,70.08
2019-01-27T14:54:31.700Z,69.72
2019-01-27T14:57:01.596Z,69.93
2019-01-27T14:59:37.556Z,69.73
2019-01-27T15:05:32.020Z,69.36
2019-01-27T15:08:02.343Z,69.42
2019-01-27T15:10:36.649Z,69.53
2019-01-27T15:13:09.627Z,69.37
2019-01-27T15:15:39.723Z,69.84
2019-01-27T15:18:48.983Z,69.39
2019-01-27T15:21:29.992Z,69.46
2019-01-27T15:24:00.437Z,69.49
2019-01-27T15:26:30.532Z,69.35
2019-01-27T15:29:01.618Z,69.44
2019-01-27T15:31:31.657Z,69.01
2019-01-27T15:34:03.502Z,69.06
2019-01-27T15:36:35.342Z,69.40
2019-01-27T15:39:08.623Z,69.05
2019-01-27T15:41:42.586Z,69.15
2019-01-27T15:44:16.127Z,69.05
2019-01-27T15:46:48.504Z,68.99
2019-01-27T15:49:39.396Z,68.79
2019-01-27T15:55:06.728Z,68.49
2019-01-27T15:57:36.185Z,68.39
2019-01-27T16:00:08.285Z,68.30
2019-01-27T16:02:40.384Z,68.69
2019-01-27T16:05:13.357Z,68.60
2019-01-27T16:07:43.757Z,68.13
2019-01-27T16:10:14.722Z,68.33
2019-01-27T16:12:45.809Z,67.91
2019-01-27T16:15:22.424Z,67.73
2019-01-27T16:17:54.767Z,67.13
2019-01-27T16:21:05.611Z,67.29
2019-01-27T16:23:53.147Z,67.30
2019-01-27T16:26:22.708Z,67.35
2019-01-27T16:28:52.176Z,68.27
2019-01-27T16:32:01.176Z,68.35
2019-01-27T16:34:56.922Z,68.36
2019-01-27T16:37:26.822Z,68.09
2019-01-27T16:39:56.632Z,68.36
2019-01-27T16:42:27.662Z,68.11
2019-01-27T16:44:57.516Z,68.35
2019-01-27T16:47:27.431Z,68.34
2019-01-27T16:49:57.012Z,68.53
2019-01-27T16:52:30.026Z,68.37
2019-01-27T16:54:59.562Z,67.82
2019-01-27T16:57:30.329Z,68.31
2019-01-27T17:00:00.011Z,67.96
2019-01-27T17:02:31.420Z,68.30
2019-01-27T17:05:01.797Z,68.61
2019-01-27T17:07:34.756Z,68.44
2019-01-27T17:10:09.149Z,67.84
2019-01-27T17:12:39.494Z,66.90
2019-01-27T17:15:13.886Z,67.84
2019-01-27T17:17:44.660Z,68.11
2019-01-27T17:20:17.227Z,68.37
2019-01-27T17:22:46.876Z,68.29
2019-01-27T17:25:18.117Z,67.74
2019-01-27T17:27:48.406Z,67.87
2019-01-27T17:30:23.076Z,67.72
2019-01-27T17:32:53.041Z,67.67
2019-01-27T17:35:23.540Z,67.72
2019-01-27T17:37:53.628Z,67.64
2019-01-27T17:40:24.649Z,67.34
2019-01-27T17:42:54.613Z,66.64
2019-01-27T17:45:25.556Z,66.40
2019-01-27T17:47:55.096Z,67.16
2019-01-27T17:50:25.694Z,67.95
2019-01-27T17:52:55.119Z,67.78
2019-01-27T17:55:47.455Z,68.21
2019-01-27T17:58:31.175Z,68.17
2019-01-27T18:01:31.634Z,67.92
2019-01-27T18:07:34.370Z,67.44
2019-01-27T18:16:11.123Z,66.73
2019-01-27T18:18:41.083Z,66.84
2019-01-27T18:21:30.365Z,66.22
2019-01-27T18:24:00.226Z,66.80
2019-01-27T18:26:30.668Z,67.43
2019-01-27T18:29:40.880Z,67.26
2019-01-27T18:38:09.158Z,67.02
2019-01-27T18:43:48.716Z,66.75
2019-01-27T18:46:19.141Z,66.67
2019-01-27T18:48:49.368Z,66.49
2019-01-27T18:51:19.786Z,66.19
2019-01-27T18:54:11.158Z,66.13
2019-01-27T18:56:55.463Z,66.43
2019-01-27T18:59:35.334Z,66.17
2019-01-27T19:02:31.075Z,65.41
2019-01-27T19:05:07.165Z,65.57
2019-01-27T19:07:55.123Z,65.80
2019-01-27T19:10:34.254Z,65.11
2019-01-27T19:13:12.361Z,65.87
2019-01-27T19:16:06.708Z,66.40
2019-01-27T19:18:55.370Z,66.49
2019-01-27T19:21:42.409Z,66.12
2019-01-27T19:24:26.000Z,66.53
2019-01-27T19:27:13.607Z,66.66
2019-01-27T19:30:02.619Z,67.07
2019-01-27T19:33:03.704Z,67.50
2019-01-27T19:36:12.564Z,67.72
2019-01-27T19:39:10.663Z,67.78
2019-01-27T19:42:11.193Z,66.98
2019-01-27T19:44:59.168Z,66.51
2019-01-27T19:47:51.663Z,66.56
2019-01-27T19:50:55.807Z,66.85
2019-01-27T19:54:02.442Z,66.60
2019-01-27T19:56:53.031Z,66.58
2019-01-27T19:59:59.908Z,66.27
2019-01-27T20:02:54.827Z,66.01
2019-01-27T20:05:44.248Z,66.63
2019-01-27T20:08:39.498Z,66.19
2019-01-27T20:11:32.296Z,65.46
2019-01-27T20:14:21.074Z,65.32
2019-01-27T20:17:16.438Z,65.74
2019-01-27T20:20:05.597Z,65.63
2019-01-27T20:23:00.884Z,66.17
2019-01-27T20:25:49.534Z,66.92
2019-01-27T20:28:37.574Z,67.18
2019-01-27T20:31:25.195Z,66.31
2019-01-27T20:34:15.914Z,66.39
2019-01-27T20:36:54.187Z,67.04
2019-01-27T20:39:41.023Z,67.29
2019-01-27T20:42:29.346Z,66.93
2019-01-27T20:45:30.838Z,66.93
2019-01-27T20:48:29.180Z,66.82
2019-01-27T20:51:23.548Z,66.18
2019-01-27T20:54:20.063Z,66.22
2019-01-27T20:56:59.135Z,66.24
2019-01-27T20:59:53.613Z,66.39
2019-01-27T21:02:55.203Z,66.53
2019-01-27T21:05:45.183Z,66.76
2019-01-27T21:08:24.302Z,66.30
2019-01-27T21:11:25.486Z,66.16
2019-01-27T21:14:14.117Z,66.59
2019-01-27T21:17:07.915Z,66.64
2019-01-27T21:19:43.803Z,66.07
2019-01-27T21:22:14.381Z,66.06
2019-01-27T21:24:43.847Z,65.77
2019-01-27T21:27:13.991Z,65.28
2019-01-27T21:30:04.337Z,65.95
2019-01-27T21:33:13.259Z,66.21
2019-01-27T21:39:28.185Z,66.57
2019-01-27T21:48:31.001Z,66.54
2019-01-27T21:51:01.451Z,66.21
2019-01-27T21:53:31.379Z,66.03
2019-01-27T21:56:03.613Z,66.28
2019-01-27T21:58:34.129Z,66.16
2019-01-27T22:01:04.921Z,66.45
2019-01-27T22:03:36.798Z,65.69
2019-01-27T22:11:34.626Z,66.11
2019-01-27T22:14:06.641Z,65.49
2019-01-27T22:16:36.039Z,65.63
2019-01-27T22:19:06.200Z,65.91
2019-01-27T22:21:37.408Z,65.97
2019-01-27T22:24:07.089Z,66.20
2019-01-27T22:26:36.481Z,66.06
2019-01-27T22:29:06.539Z,66.38
2019-01-27T22:31:36.934Z,66.28
2019-01-27T22:34:06.500Z,66.57
2019-01-27T22:36:35.900Z,66.76
2019-01-27T22:39:08.299Z,66.62
2019-01-27T22:41:39.201Z,66.67
2019-01-27T22:44:08.965Z,66.07
2019-01-27T22:46:38.508Z,65.64
2019-01-27T22:49:08.378Z,65.83
2019-01-27T22:51:38.486Z,65.90
2019-01-27T22:54:09.949Z,66.07
2019-01-27T22:56:39.797Z,65.71
2019-01-27T22:59:09.249Z,65.45
2019-01-27T23:01:39.680Z,65.06
2019-01-27T23:04:09.979Z,65.41
2019-01-27T23:06:39.962Z,65.53
2019-01-27T23:09:18.521Z,65.50
2019-01-27T23:11:49.201Z,65.16
2019-01-27T23:17:13.621Z,65.55
2019-01-27T23:20:22.747Z,65.99
2019-01-27T23:22:53.377Z,65.85
2019-01-27T23:31:45.407Z,65.43
2019-01-27T23:37:24.745Z,65.56
2019-01-27T23:39:54.144Z,66.02
2019-01-27T23:43:02.980Z,65.42
2019-01-27T23:48:55.979Z,65.23
2019-01-27T23:51:26.104Z,65.38
